sensor_id;sensor_type;location;lat;lon;timestamp;P1;durP1;ratioP1;P2;durP2;ratioP2
8964;SDS011;4517;49.020;12.066;2023-05-14T00:00:39;19.67;;;17.90;;
8964;SDS011;4517;49.020;12.066;2023-05-14T00:03:05;19.57;;;17.57;;
8964;SDS011;4517;49.020;12.066;2023-05-14T00:05:30;20.60;;;18.57;;
8964;SDS011;4517;49.020;12.066;2023-05-14T00:07:56;18.67;;;17.00;;
8964;SDS011;4517;49.020;12.066;2023-05-14T00:10:21;19.03;;;17.33;;
8964;SDS011;4517;49.020;12.066;2023-05-14T00:12:47;17.53;;;16.00;;
8964;SDS011;4517;49.020;12.066;2023-05-14T00:15:12;17.60;;;16.10;;
8964;SDS011;4517;49.020;12.066;2023-05-14T00:17:38;18.47;;;16.70;;
8964;SDS011;4517;49.020;12.066;2023-05-14T00:20:04;19.23;;;17.63;;
8964;SDS011;4517;49.020;12.066;2023-05-14T00:22:31;20.70;;;18.70;;
8964;SDS011;4517;49.020;12.066;2023-05-14T00:24:57;21.03;;;17.80;;
8964;SDS011;4517;49.020;12.066;2023-05-14T00:27:23;20.40;;;18.60;;
8964;SDS011;4517;49.020;12.066;2023-05-14T00:29:48;19.40;;;17.70;;
8964;SDS011;4517;49.020;12.066;2023-05-14T00:32:14;19.93;;;17.30;;
8964;SDS011;4517;49.020;12.066;2023-05-14T00:34:40;18.20;;;16.70;;
8964;SDS011;4517;49.020;12.066;2023-05-14T00:37:05;18.87;;;17.27;;
8964;SDS011;4517;49.020;12.066;2023-05-14T00:39:31;19.10;;;17.10;;
8964;SDS011;4517;49.020;12.066;2023-05-14T00:41:56;18.97;;;17.47;;
8964;SDS011;4517;49.020;12.066;2023-05-14T00:44:22;19.90;;;17.80;;
8964;SDS011;4517;49.020;12.066;2023-05-14T00:46:47;18.37;;;16.77;;
8964;SDS011;4517;49.020;12.066;2023-05-14T00:49:13;18.73;;;17.23;;
8964;SDS011;4517;49.020;12.066;2023-05-14T00:51:39;19.20;;;17.50;;
8964;SDS011;4517;49.020;12.066;2023-05-14T00:54:06;18.73;;;17.13;;
8964;SDS011;4517;49.020;12.066;2023-05-14T00:56:32;18.70;;;17.00;;
8964;SDS011;4517;49.020;12.066;2023-05-14T00:58:58;18.03;;;16.53;;
8964;SDS011;4517;49.020;12.066;2023-05-14T01:01:24;19.13;;;17.07;;
8964;SDS011;4517;49.020;12.066;2023-05-14T01:03:52;19.00;;;17.40;;
8964;SDS011;4517;49.020;12.066;2023-05-14T01:09:15;18.43;;;16.63;;
8964;SDS011;4517;49.020;12.066;2023-05-14T01:15:11;19.23;;;17.33;;
8964;SDS011;4517;49.020;12.066;2023-05-14T01:17:38;18.33;;;16.67;;
8964;SDS011;4517;49.020;12.066;2023-05-14T01:20:07;19.67;;;17.97;;
8964;SDS011;4517;49.020;12.066;2023-05-14T01:22:33;17.87;;;16.03;;
8964;SDS011;4517;49.020;12.066;2023-05-14T01:24:59;18.00;;;16.43;;
8964;SDS011;4517;49.020;12.066;2023-05-14T01:27:28;20.03;;;18.33;;
8964;SDS011;4517;49.020;12.066;2023-05-14T01:30:13;18.33;;;16.90;;
8964;SDS011;4517;49.020;12.066;2023-05-14T01:32:47;19.57;;;18.00;;
8964;SDS011;4517;49.020;12.066;2023-05-14T01:35:15;18.97;;;17.30;;
8964;SDS011;4517;49.020;12.066;2023-05-14T01:37:42;19.70;;;17.90;;
8964;SDS011;4517;49.020;12.066;2023-05-14T01:40:09;19.50;;;17.60;;
8964;SDS011;4517;49.020;12.066;2023-05-14T01:42:36;17.87;;;16.33;;
8964;SDS011;4517;49.020;12.066;2023-05-14T01:45:02;19.50;;;17.73;;
8964;SDS011;4517;49.020;12.066;2023-05-14T01:47:28;19.30;;;17.70;;
8964;SDS011;4517;49.020;12.066;2023-05-14T01:49:53;18.97;;;17.27;;
8964;SDS011;4517;49.020;12.066;2023-05-14T01:52:19;19.27;;;17.53;;
8964;SDS011;4517;49.020;12.066;2023-05-14T01:54:45;20.47;;;18.60;;
8964;SDS011;4517;49.020;12.066;2023-05-14T01:57:14;18.87;;;17.23;;
8964;SDS011;4517;49.020;12.066;2023-05-14T01:59:39;19.17;;;17.57;;
8964;SDS011;4517;49.020;12.066;2023-05-14T02:02:05;18.97;;;17.30;;
8964;SDS011;4517;49.020;12.066;2023-05-14T02:04:30;18.07;;;16.40;;
8964;SDS011;4517;49.020;12.066;2023-05-14T02:06:56;19.07;;;17.47;;
8964;SDS011;4517;49.020;12.066;2023-05-14T02:09:22;19.23;;;17.30;;
8964;SDS011;4517;49.020;12.066;2023-05-14T02:11:48;19.07;;;17.37;;
8964;SDS011;4517;49.020;12.066;2023-05-14T02:14:14;19.60;;;17.80;;
8964;SDS011;4517;49.020;12.066;2023-05-14T02:16:39;20.40;;;18.60;;
8964;SDS011;4517;49.020;12.066;2023-05-14T02:19:05;19.43;;;17.83;;
8964;SDS011;4517;49.020;12.066;2023-05-14T02:21:31;20.53;;;18.80;;
8964;SDS011;4517;49.020;12.066;2023-05-14T02:23:56;20.00;;;18.40;;
8964;SDS011;4517;49.020;12.066;2023-05-14T02:26:22;18.70;;;16.97;;
8964;SDS011;4517;49.020;12.066;2023-05-14T02:28:47;19.57;;;17.77;;
8964;SDS011;4517;49.020;12.066;2023-05-14T02:31:13;19.70;;;17.70;;
8964;SDS011;4517;49.020;12.066;2023-05-14T02:33:39;20.30;;;18.40;;
8964;SDS011;4517;49.020;12.066;2023-05-14T02:36:04;19.47;;;17.77;;
8964;SDS011;4517;49.020;12.066;2023-05-14T02:38:30;20.50;;;18.80;;
8964;SDS011;4517;49.020;12.066;2023-05-14T02:40:55;19.23;;;17.63;;
8964;SDS011;4517;49.020;12.066;2023-05-14T02:43:21;20.20;;;18.50;;
8964;SDS011;4517;49.020;12.066;2023-05-14T02:45:46;20.50;;;18.73;;
8964;SDS011;4517;49.020;12.066;2023-05-14T02:48:12;20.60;;;18.67;;
8964;SDS011;4517;49.020;12.066;2023-05-14T02:50:38;20.20;;;18.30;;
8964;SDS011;4517;49.020;12.066;2023-05-14T02:53:03;20.30;;;18.40;;
8964;SDS011;4517;49.020;12.066;2023-05-14T02:55:29;19.43;;;17.50;;
8964;SDS011;4517;49.020;12.066;2023-05-14T02:57:55;19.60;;;17.87;;
8964;SDS011;4517;49.020;12.066;2023-05-14T03:00:20;19.37;;;17.60;;
8964;SDS011;4517;49.020;12.066;2023-05-14T03:02:46;19.90;;;17.80;;
8964;SDS011;4517;49.020;12.066;2023-05-14T03:05:12;22.83;;;19.50;;
8964;SDS011;4517;49.020;12.066;2023-05-14T03:07:37;20.93;;;18.83;;
8964;SDS011;4517;49.020;12.066;2023-05-14T03:10:03;20.50;;;18.37;;
8964;SDS011;4517;49.020;12.066;2023-05-14T03:12:29;19.03;;;17.30;;
8964;SDS011;4517;49.020;12.066;2023-05-14T03:14:55;20.77;;;18.73;;
8964;SDS011;4517;49.020;12.066;2023-05-14T03:17:21;22.30;;;19.40;;
8964;SDS011;4517;49.020;12.066;2023-05-14T03:19:46;24.53;;;19.37;;
8964;SDS011;4517;49.020;12.066;2023-05-14T03:22:12;21.10;;;19.10;;
8964;SDS011;4517;49.020;12.066;2023-05-14T03:24:38;19.00;;;17.27;;
8964;SDS011;4517;49.020;12.066;2023-05-14T03:27:04;20.33;;;18.33;;
8964;SDS011;4517;49.020;12.066;2023-05-14T03:29:30;21.43;;;19.13;;
8964;SDS011;4517;49.020;12.066;2023-05-14T03:31:55;20.17;;;18.20;;
8964;SDS011;4517;49.020;12.066;2023-05-14T03:34:21;19.70;;;17.80;;
8964;SDS011;4517;49.020;12.066;2023-05-14T03:36:46;19.33;;;17.23;;
8964;SDS011;4517;49.020;12.066;2023-05-14T03:39:12;20.03;;;17.50;;
8964;SDS011;4517;49.020;12.066;2023-05-14T03:41:44;21.37;;;18.80;;
8964;SDS011;4517;49.020;12.066;2023-05-14T03:44:10;21.50;;;19.20;;
8964;SDS011;4517;49.020;12.066;2023-05-14T03:46:36;20.87;;;18.50;;
8964;SDS011;4517;49.020;12.066;2023-05-14T03:49:02;23.80;;;20.63;;
8964;SDS011;4517;49.020;12.066;2023-05-14T03:51:27;23.30;;;19.77;;
8964;SDS011;4517;49.020;12.066;2023-05-14T03:53:53;23.50;;;21.03;;
8964;SDS011;4517;49.020;12.066;2023-05-14T03:56:18;24.03;;;21.63;;
8964;SDS011;4517;49.020;12.066;2023-05-14T03:58:44;22.30;;;20.00;;
8964;SDS011;4517;49.020;12.066;2023-05-14T04:01:10;20.20;;;18.13;;
8964;SDS011;4517;49.020;12.066;2023-05-14T04:03:35;21.57;;;19.57;;
8964;SDS011;4517;49.020;12.066;2023-05-14T04:06:01;20.00;;;18.07;;
8964;SDS011;4517;49.020;12.066;2023-05-14T04:08:26;19.80;;;17.97;;
8964;SDS011;4517;49.020;12.066;2023-05-14T04:10:52;20.13;;;18.07;;
8964;SDS011;4517;49.020;12.066;2023-05-14T04:13:17;18.17;;;16.67;;
8964;SDS011;4517;49.020;12.066;2023-05-14T04:15:43;18.13;;;16.60;;
8964;SDS011;4517;49.020;12.066;2023-05-14T04:18:08;17.90;;;16.40;;
8964;SDS011;4517;49.020;12.066;2023-05-14T04:20:34;18.60;;;17.00;;
8964;SDS011;4517;49.020;12.066;2023-05-14T04:23:00;18.00;;;16.33;;
8964;SDS011;4517;49.020;12.066;2023-05-14T04:25:26;17.00;;;15.73;;
8964;SDS011;4517;49.020;12.066;2023-05-14T04:27:52;17.10;;;15.80;;
8964;SDS011;4517;49.020;12.066;2023-05-14T04:30:18;16.70;;;15.40;;
8964;SDS011;4517;49.020;12.066;2023-05-14T04:32:43;16.63;;;15.23;;
8964;SDS011;4517;49.020;12.066;2023-05-14T04:35:09;17.50;;;15.93;;
8964;SDS011;4517;49.020;12.066;2023-05-14T04:37:35;17.07;;;15.83;;
8964;SDS011;4517;49.020;12.066;2023-05-14T04:40:00;16.57;;;15.27;;
8964;SDS011;4517;49.020;12.066;2023-05-14T04:42:26;16.47;;;15.23;;
8964;SDS011;4517;49.020;12.066;2023-05-14T04:44:51;16.60;;;15.30;;
8964;SDS011;4517;49.020;12.066;2023-05-14T04:47:17;17.63;;;14.70;;
8964;SDS011;4517;49.020;12.066;2023-05-14T04:49:43;16.10;;;14.80;;
8964;SDS011;4517;49.020;12.066;2023-05-14T04:52:09;18.40;;;16.80;;
8964;SDS011;4517;49.020;12.066;2023-05-14T04:54:35;18.10;;;16.70;;
8964;SDS011;4517;49.020;12.066;2023-05-14T04:57:00;18.60;;;17.20;;
8964;SDS011;4517;49.020;12.066;2023-05-14T04:59:27;17.00;;;15.60;;
8964;SDS011;4517;49.020;12.066;2023-05-14T05:01:56;18.17;;;16.77;;
8964;SDS011;4517;49.020;12.066;2023-05-14T05:04:22;17.37;;;16.07;;
8964;SDS011;4517;49.020;12.066;2023-05-14T05:06:48;17.80;;;16.30;;
8964;SDS011;4517;49.020;12.066;2023-05-14T05:09:14;16.73;;;15.43;;
8964;SDS011;4517;49.020;12.066;2023-05-14T05:11:41;18.60;;;17.03;;
8964;SDS011;4517;49.020;12.066;2023-05-14T05:14:06;16.67;;;15.47;;
8964;SDS011;4517;49.020;12.066;2023-05-14T05:16:32;17.30;;;16.00;;
8964;SDS011;4517;49.020;12.066;2023-05-14T05:18:57;18.57;;;16.80;;
8964;SDS011;4517;49.020;12.066;2023-05-14T05:21:23;18.10;;;16.67;;
8964;SDS011;4517;49.020;12.066;2023-05-14T05:23:48;17.00;;;15.80;;
8964;SDS011;4517;49.020;12.066;2023-05-14T05:26:14;18.03;;;16.50;;
8964;SDS011;4517;49.020;12.066;2023-05-14T05:28:40;17.90;;;16.50;;
8964;SDS011;4517;49.020;12.066;2023-05-14T05:31:06;17.07;;;15.67;;
8964;SDS011;4517;49.020;12.066;2023-05-14T05:33:32;17.03;;;15.57;;
8964;SDS011;4517;49.020;12.066;2023-05-14T05:35:58;17.80;;;16.30;;
8964;SDS011;4517;49.020;12.066;2023-05-14T05:38:24;18.00;;;16.20;;
8964;SDS011;4517;49.020;12.066;2023-05-14T05:40:50;17.87;;;16.27;;
8964;SDS011;4517;49.020;12.066;2023-05-14T05:43:16;17.40;;;16.07;;
8964;SDS011;4517;49.020;12.066;2023-05-14T05:45:41;16.20;;;14.97;;
8964;SDS011;4517;49.020;12.066;2023-05-14T05:48:07;17.43;;;16.03;;
8964;SDS011;4517;49.020;12.066;2023-05-14T05:50:33;16.93;;;15.50;;
8964;SDS011;4517;49.020;12.066;2023-05-14T05:52:58;16.70;;;15.50;;
8964;SDS011;4517;49.020;12.066;2023-05-14T05:55:24;17.70;;;16.30;;
8964;SDS011;4517;49.020;12.066;2023-05-14T05:57:49;18.40;;;16.70;;
8964;SDS011;4517;49.020;12.066;2023-05-14T06:00:15;16.40;;;15.20;;
8964;SDS011;4517;49.020;12.066;2023-05-14T06:02:41;18.97;;;17.47;;
8964;SDS011;4517;49.020;12.066;2023-05-14T06:05:07;17.17;;;15.90;;
8964;SDS011;4517;49.020;12.066;2023-05-14T06:07:34;17.10;;;15.80;;
8964;SDS011;4517;49.020;12.066;2023-05-14T06:10:00;17.00;;;15.70;;
8964;SDS011;4517;49.020;12.066;2023-05-14T06:12:25;18.17;;;16.47;;
8964;SDS011;4517;49.020;12.066;2023-05-14T06:14:52;16.57;;;15.27;;
8964;SDS011;4517;49.020;12.066;2023-05-14T06:17:19;16.53;;;15.23;;
8964;SDS011;4517;49.020;12.066;2023-05-14T06:19:45;16.70;;;15.40;;
8964;SDS011;4517;49.020;12.066;2023-05-14T06:22:10;17.37;;;16.07;;
8964;SDS011;4517;49.020;12.066;2023-05-14T06:24:36;16.30;;;14.80;;
8964;SDS011;4517;49.020;12.066;2023-05-14T06:27:02;15.93;;;14.83;;
8964;SDS011;4517;49.020;12.066;2023-05-14T06:29:27;21.00;;;19.60;;
8964;SDS011;4517;49.020;12.066;2023-05-14T06:31:53;15.80;;;14.60;;
8964;SDS011;4517;49.020;12.066;2023-05-14T06:34:18;16.40;;;15.30;;
8964;SDS011;4517;49.020;12.066;2023-05-14T06:36:44;14.97;;;13.87;;
8964;SDS011;4517;49.020;12.066;2023-05-14T06:39:10;17.00;;;15.60;;
8964;SDS011;4517;49.020;12.066;2023-05-14T06:41:36;15.97;;;14.97;;
8964;SDS011;4517;49.020;12.066;2023-05-14T06:44:01;15.47;;;14.37;;
8964;SDS011;4517;49.020;12.066;2023-05-14T06:46:27;15.03;;;13.83;;
8964;SDS011;4517;49.020;12.066;2023-05-14T06:48:53;16.27;;;15.10;;
8964;SDS011;4517;49.020;12.066;2023-05-14T06:51:18;14.63;;;13.53;;
8964;SDS011;4517;49.020;12.066;2023-05-14T06:53:44;16.23;;;14.93;;
8964;SDS011;4517;49.020;12.066;2023-05-14T06:56:10;15.00;;;13.90;;
8964;SDS011;4517;49.020;12.066;2023-05-14T06:58:37;15.50;;;14.50;;
8964;SDS011;4517;49.020;12.066;2023-05-14T07:01:03;15.80;;;14.70;;
8964;SDS011;4517;49.020;12.066;2023-05-14T07:03:28;15.87;;;14.83;;
8964;SDS011;4517;49.020;12.066;2023-05-14T07:05:54;15.27;;;14.20;;
8964;SDS011;4517;49.020;12.066;2023-05-14T07:08:19;15.07;;;13.87;;
8964;SDS011;4517;49.020;12.066;2023-05-14T07:10:45;15.70;;;14.30;;
8964;SDS011;4517;49.020;12.066;2023-05-14T07:13:11;14.70;;;13.57;;
8964;SDS011;4517;49.020;12.066;2023-05-14T07:15:36;15.30;;;14.20;;
8964;SDS011;4517;49.020;12.066;2023-05-14T07:18:02;14.80;;;13.80;;
8964;SDS011;4517;49.020;12.066;2023-05-14T07:20:27;14.97;;;13.97;;
8964;SDS011;4517;49.020;12.066;2023-05-14T07:22:53;14.83;;;13.73;;
8964;SDS011;4517;49.020;12.066;2023-05-14T07:25:18;14.13;;;13.23;;
8964;SDS011;4517;49.020;12.066;2023-05-14T07:27:44;15.33;;;14.43;;
8964;SDS011;4517;49.020;12.066;2023-05-14T07:30:10;15.57;;;14.47;;
8964;SDS011;4517;49.020;12.066;2023-05-14T07:32:35;13.33;;;12.53;;
8964;SDS011;4517;49.020;12.066;2023-05-14T07:35:01;14.93;;;13.73;;
8964;SDS011;4517;49.020;12.066;2023-05-14T07:37:26;14.10;;;13.20;;
8964;SDS011;4517;49.020;12.066;2023-05-14T07:39:52;13.10;;;12.20;;
8964;SDS011;4517;49.020;12.066;2023-05-14T07:42:17;15.17;;;14.13;;
8964;SDS011;4517;49.020;12.066;2023-05-14T07:44:43;14.03;;;13.13;;
8964;SDS011;4517;49.020;12.066;2023-05-14T07:47:09;13.43;;;12.63;;
8964;SDS011;4517;49.020;12.066;2023-05-14T07:49:34;13.10;;;12.37;;
8964;SDS011;4517;49.020;12.066;2023-05-14T07:52:00;14.00;;;13.00;;
8964;SDS011;4517;49.020;12.066;2023-05-14T07:54:26;12.80;;;12.10;;
8964;SDS011;4517;49.020;12.066;2023-05-14T07:56:51;14.80;;;13.70;;
8964;SDS011;4517;49.020;12.066;2023-05-14T07:59:17;15.37;;;14.37;;
8964;SDS011;4517;49.020;12.066;2023-05-14T08:01:42;16.17;;;14.97;;
8964;SDS011;4517;49.020;12.066;2023-05-14T08:04:08;15.83;;;14.83;;
8964;SDS011;4517;49.020;12.066;2023-05-14T08:06:35;15.20;;;14.20;;
8964;SDS011;4517;49.020;12.066;2023-05-14T08:09:01;15.10;;;14.10;;
8964;SDS011;4517;49.020;12.066;2023-05-14T08:11:29;15.57;;;14.57;;
8964;SDS011;4517;49.020;12.066;2023-05-14T08:13:55;15.40;;;14.40;;
8964;SDS011;4517;49.020;12.066;2023-05-14T08:16:21;13.90;;;13.00;;
8964;SDS011;4517;49.020;12.066;2023-05-14T08:18:47;15.67;;;14.57;;
8964;SDS011;4517;49.020;12.066;2023-05-14T08:21:13;14.97;;;14.07;;
8964;SDS011;4517;49.020;12.066;2023-05-14T08:23:38;13.67;;;12.87;;
8964;SDS011;4517;49.020;12.066;2023-05-14T08:26:04;13.93;;;13.00;;
8964;SDS011;4517;49.020;12.066;2023-05-14T08:28:30;13.47;;;12.77;;
8964;SDS011;4517;49.020;12.066;2023-05-14T08:30:55;14.10;;;13.20;;
8964;SDS011;4517;49.020;12.066;2023-05-14T08:33:21;15.20;;;13.97;;
8964;SDS011;4517;49.020;12.066;2023-05-14T08:35:48;14.60;;;13.60;;
8964;SDS011;4517;49.020;12.066;2023-05-14T08:38:15;13.70;;;12.87;;
8964;SDS011;4517;49.020;12.066;2023-05-14T08:40:41;15.37;;;14.47;;
8964;SDS011;4517;49.020;12.066;2023-05-14T08:43:10;15.23;;;14.33;;
8964;SDS011;4517;49.020;12.066;2023-05-14T08:45:37;13.23;;;12.37;;
8964;SDS011;4517;49.020;12.066;2023-05-14T08:48:04;13.57;;;12.50;;
8964;SDS011;4517;49.020;12.066;2023-05-14T08:50:32;13.77;;;12.97;;
8964;SDS011;4517;49.020;12.066;2023-05-14T08:52:59;13.50;;;12.80;;
8964;SDS011;4517;49.020;12.066;2023-05-14T08:55:25;14.60;;;13.70;;
8964;SDS011;4517;49.020;12.066;2023-05-14T08:57:52;14.47;;;13.67;;
8964;SDS011;4517;49.020;12.066;2023-05-14T09:00:17;14.30;;;13.40;;
8964;SDS011;4517;49.020;12.066;2023-05-14T09:02:43;16.90;;;15.90;;
8964;SDS011;4517;49.020;12.066;2023-05-14T09:05:10;13.60;;;12.80;;
8964;SDS011;4517;49.020;12.066;2023-05-14T09:07:36;14.73;;;13.80;;
8964;SDS011;4517;49.020;12.066;2023-05-14T09:10:01;13.43;;;12.43;;
8964;SDS011;4517;49.020;12.066;2023-05-14T09:12:28;14.13;;;13.27;;
8964;SDS011;4517;49.020;12.066;2023-05-14T09:14:53;14.73;;;13.83;;
8964;SDS011;4517;49.020;12.066;2023-05-14T09:17:19;13.60;;;12.80;;
8964;SDS011;4517;49.020;12.066;2023-05-14T09:19:45;14.57;;;13.67;;
8964;SDS011;4517;49.020;12.066;2023-05-14T09:22:16;13.43;;;12.60;;
8964;SDS011;4517;49.020;12.066;2023-05-14T09:24:42;14.30;;;13.50;;
8964;SDS011;4517;49.020;12.066;2023-05-14T09:27:09;12.60;;;11.90;;
8964;SDS011;4517;49.020;12.066;2023-05-14T09:29:42;13.20;;;12.30;;
8964;SDS011;4517;49.020;12.066;2023-05-14T09:32:07;14.33;;;13.43;;
8964;SDS011;4517;49.020;12.066;2023-05-14T09:34:34;12.50;;;11.80;;
8964;SDS011;4517;49.020;12.066;2023-05-14T09:37:05;13.37;;;12.57;;
8964;SDS011;4517;49.020;12.066;2023-05-14T09:39:32;12.90;;;12.20;;
8964;SDS011;4517;49.020;12.066;2023-05-14T09:42:00;13.60;;;12.80;;
8964;SDS011;4517;49.020;12.066;2023-05-14T09:44:26;13.93;;;13.07;;
8964;SDS011;4517;49.020;12.066;2023-05-14T09:46:51;13.30;;;12.40;;
8964;SDS011;4517;49.020;12.066;2023-05-14T09:49:17;13.57;;;12.67;;
8964;SDS011;4517;49.020;12.066;2023-05-14T09:51:43;12.67;;;11.87;;
8964;SDS011;4517;49.020;12.066;2023-05-14T09:54:09;13.63;;;12.83;;
8964;SDS011;4517;49.020;12.066;2023-05-14T09:56:35;12.80;;;12.10;;
8964;SDS011;4517;49.020;12.066;2023-05-14T09:59:01;13.80;;;13.00;;
8964;SDS011;4517;49.020;12.066;2023-05-14T10:01:28;15.10;;;14.10;;
8964;SDS011;4517;49.020;12.066;2023-05-14T10:03:54;12.67;;;11.97;;
8964;SDS011;4517;49.020;12.066;2023-05-14T10:06:27;13.63;;;12.73;;
8964;SDS011;4517;49.020;12.066;2023-05-14T10:08:56;12.57;;;11.93;;
8964;SDS011;4517;49.020;12.066;2023-05-14T10:11:27;13.17;;;12.37;;
8964;SDS011;4517;49.020;12.066;2023-05-14T10:16:33;29.33;;;24.30;;
8964;SDS011;4517;49.020;12.066;2023-05-14T10:19:07;16.47;;;15.00;;
8964;SDS011;4517;49.020;12.066;2023-05-14T10:21:35;14.00;;;13.10;;
8964;SDS011;4517;49.020;12.066;2023-05-14T10:24:02;13.53;;;12.73;;
8964;SDS011;4517;49.020;12.066;2023-05-14T10:26:30;14.40;;;13.53;;
8964;SDS011;4517;49.020;12.066;2023-05-14T10:28:56;14.47;;;13.67;;
8964;SDS011;4517;49.020;12.066;2023-05-14T10:31:23;13.97;;;13.17;;
8964;SDS011;4517;49.020;12.066;2023-05-14T10:34:29;13.50;;;12.70;;
8964;SDS011;4517;49.020;12.066;2023-05-14T10:37:03;15.87;;;14.60;;
8964;SDS011;4517;49.020;12.066;2023-05-14T10:42:12;13.33;;;12.53;;
8964;SDS011;4517;49.020;12.066;2023-05-14T10:44:46;15.10;;;14.10;;
8964;SDS011;4517;49.020;12.066;2023-05-14T10:47:14;14.83;;;13.80;;
8964;SDS011;4517;49.020;12.066;2023-05-14T10:49:43;14.40;;;13.40;;
8964;SDS011;4517;49.020;12.066;2023-05-14T10:52:13;24.43;;;22.97;;
8964;SDS011;4517;49.020;12.066;2023-05-14T10:54:45;15.00;;;14.00;;
8964;SDS011;4517;49.020;12.066;2023-05-14T10:57:14;14.20;;;13.40;;
8964;SDS011;4517;49.020;12.066;2023-05-14T10:59:42;15.90;;;14.93;;
8964;SDS011;4517;49.020;12.066;2023-05-14T11:02:17;14.70;;;13.80;;
8964;SDS011;4517;49.020;12.066;2023-05-14T11:04:52;16.83;;;15.67;;
8964;SDS011;4517;49.020;12.066;2023-05-14T11:07:45;22.77;;;20.80;;
8964;SDS011;4517;49.020;12.066;2023-05-14T11:10:19;15.20;;;14.17;;
8964;SDS011;4517;49.020;12.066;2023-05-14T11:12:46;15.33;;;14.20;;
8964;SDS011;4517;49.020;12.066;2023-05-14T11:15:15;15.17;;;14.23;;
8964;SDS011;4517;49.020;12.066;2023-05-14T11:17:43;15.70;;;14.70;;
8964;SDS011;4517;49.020;12.066;2023-05-14T11:20:09;14.63;;;13.73;;
8964;SDS011;4517;49.020;12.066;2023-05-14T11:22:36;15.20;;;14.30;;
8964;SDS011;4517;49.020;12.066;2023-05-14T11:25:03;15.00;;;14.00;;
8964;SDS011;4517;49.020;12.066;2023-05-14T11:27:32;15.70;;;14.80;;
8964;SDS011;4517;49.020;12.066;2023-05-14T11:29:59;14.40;;;13.40;;
8964;SDS011;4517;49.020;12.066;2023-05-14T11:32:25;14.73;;;13.83;;
8964;SDS011;4517;49.020;12.066;2023-05-14T11:34:51;15.50;;;14.40;;
8964;SDS011;4517;49.020;12.066;2023-05-14T11:37:16;15.47;;;14.47;;
8964;SDS011;4517;49.020;12.066;2023-05-14T11:39:46;15.57;;;14.60;;
8964;SDS011;4517;49.020;12.066;2023-05-14T11:42:12;15.33;;;14.40;;
8964;SDS011;4517;49.020;12.066;2023-05-14T11:44:40;14.90;;;14.00;;
8964;SDS011;4517;49.020;12.066;2023-05-14T11:47:08;15.23;;;14.33;;
8964;SDS011;4517;49.020;12.066;2023-05-14T11:49:34;15.30;;;14.30;;
8964;SDS011;4517;49.020;12.066;2023-05-14T11:52:02;15.57;;;14.67;;
8964;SDS011;4517;49.020;12.066;2023-05-14T11:54:29;15.70;;;14.70;;
8964;SDS011;4517;49.020;12.066;2023-05-14T11:56:56;15.83;;;14.60;;
8964;SDS011;4517;49.020;12.066;2023-05-14T11:59:23;14.57;;;13.67;;
8964;SDS011;4517;49.020;12.066;2023-05-14T12:01:49;15.00;;;14.07;;
8964;SDS011;4517;49.020;12.066;2023-05-14T12:04:17;14.03;;;13.23;;
8964;SDS011;4517;49.020;12.066;2023-05-14T12:06:46;13.50;;;12.70;;
8964;SDS011;4517;49.020;12.066;2023-05-14T12:09:15;14.93;;;14.03;;
8964;SDS011;4517;49.020;12.066;2023-05-14T12:11:42;14.03;;;13.13;;
8964;SDS011;4517;49.020;12.066;2023-05-14T12:14:16;13.63;;;12.73;;
8964;SDS011;4517;49.020;12.066;2023-05-14T12:16:43;13.80;;;12.90;;
8964;SDS011;4517;49.020;12.066;2023-05-14T12:19:10;14.73;;;13.67;;
8964;SDS011;4517;49.020;12.066;2023-05-14T12:21:38;14.53;;;13.63;;
8964;SDS011;4517;49.020;12.066;2023-05-14T12:24:07;14.73;;;13.73;;
8964;SDS011;4517;49.020;12.066;2023-05-14T12:26:34;14.33;;;13.33;;
8964;SDS011;4517;49.020;12.066;2023-05-14T12:29:00;15.10;;;14.10;;
8964;SDS011;4517;49.020;12.066;2023-05-14T12:31:29;14.60;;;13.67;;
8964;SDS011;4517;49.020;12.066;2023-05-14T12:33:56;14.00;;;13.10;;
8964;SDS011;4517;49.020;12.066;2023-05-14T12:36:22;14.13;;;13.23;;
8964;SDS011;4517;49.020;12.066;2023-05-14T12:38:57;13.60;;;12.80;;
8964;SDS011;4517;49.020;12.066;2023-05-14T12:41:25;13.43;;;12.60;;
8964;SDS011;4517;49.020;12.066;2023-05-14T12:43:51;14.33;;;13.47;;
8964;SDS011;4517;49.020;12.066;2023-05-14T12:46:16;15.00;;;14.00;;
8964;SDS011;4517;49.020;12.066;2023-05-14T12:48:42;14.90;;;14.00;;
8964;SDS011;4517;49.020;12.066;2023-05-14T12:51:07;13.80;;;13.00;;
8964;SDS011;4517;49.020;12.066;2023-05-14T12:53:33;15.30;;;14.30;;
8964;SDS011;4517;49.020;12.066;2023-05-14T12:55:59;15.40;;;14.20;;
8964;SDS011;4517;49.020;12.066;2023-05-14T12:58:25;16.60;;;15.03;;
8964;SDS011;4517;49.020;12.066;2023-05-14T13:00:50;15.13;;;14.13;;
8964;SDS011;4517;49.020;12.066;2023-05-14T13:03:16;15.93;;;14.93;;
8964;SDS011;4517;49.020;12.066;2023-05-14T13:05:41;13.03;;;12.23;;
8964;SDS011;4517;49.020;12.066;2023-05-14T13:08:07;15.03;;;14.13;;
8964;SDS011;4517;49.020;12.066;2023-05-14T13:10:33;15.67;;;14.67;;
8964;SDS011;4517;49.020;12.066;2023-05-14T13:12:59;14.77;;;13.87;;
8964;SDS011;4517;49.020;12.066;2023-05-14T13:15:26;15.20;;;14.13;;
8964;SDS011;4517;49.020;12.066;2023-05-14T13:17:52;24.33;;;22.87;;
8964;SDS011;4517;49.020;12.066;2023-05-14T13:20:17;16.00;;;14.83;;
8964;SDS011;4517;49.020;12.066;2023-05-14T13:22:43;15.53;;;14.53;;
8964;SDS011;4517;49.020;12.066;2023-05-14T13:25:09;15.33;;;14.23;;
8964;SDS011;4517;49.020;12.066;2023-05-14T13:27:34;14.80;;;13.90;;
8964;SDS011;4517;49.020;12.066;2023-05-14T13:30:01;16.30;;;15.20;;
8964;SDS011;4517;49.020;12.066;2023-05-14T13:32:27;15.80;;;14.80;;
8964;SDS011;4517;49.020;12.066;2023-05-14T13:34:52;17.17;;;16.07;;
8964;SDS011;4517;49.020;12.066;2023-05-14T13:37:18;16.17;;;15.07;;
8964;SDS011;4517;49.020;12.066;2023-05-14T13:39:44;22.03;;;20.53;;
8964;SDS011;4517;49.020;12.066;2023-05-14T13:42:09;23.03;;;21.33;;
8964;SDS011;4517;49.020;12.066;2023-05-14T13:44:35;16.53;;;15.40;;
8964;SDS011;4517;49.020;12.066;2023-05-14T13:47:00;26.23;;;23.93;;
8964;SDS011;4517;49.020;12.066;2023-05-14T13:49:26;31.57;;;28.87;;
8964;SDS011;4517;49.020;12.066;2023-05-14T13:51:51;28.53;;;25.70;;
8964;SDS011;4517;49.020;12.066;2023-05-14T13:54:17;29.30;;;26.60;;
8964;SDS011;4517;49.020;12.066;2023-05-14T13:56:42;29.70;;;26.90;;
8964;SDS011;4517;49.020;12.066;2023-05-14T13:59:08;25.27;;;22.80;;
8964;SDS011;4517;49.020;12.066;2023-05-14T14:01:35;26.70;;;23.87;;
8964;SDS011;4517;49.020;12.066;2023-05-14T14:04:00;24.87;;;22.57;;
8964;SDS011;4517;49.020;12.066;2023-05-14T14:06:26;28.37;;;25.47;;
8964;SDS011;4517;49.020;12.066;2023-05-14T14:08:54;26.53;;;24.33;;
8964;SDS011;4517;49.020;12.066;2023-05-14T14:11:20;28.27;;;25.97;;
8964;SDS011;4517;49.020;12.066;2023-05-14T14:13:45;36.37;;;33.40;;
8964;SDS011;4517;49.020;12.066;2023-05-14T14:16:11;42.33;;;39.03;;
8964;SDS011;4517;49.020;12.066;2023-05-14T14:18:36;46.43;;;43.03;;
8964;SDS011;4517;49.020;12.066;2023-05-14T14:21:02;57.17;;;53.17;;
8964;SDS011;4517;49.020;12.066;2023-05-14T14:23:28;69.33;;;64.70;;
8964;SDS011;4517;49.020;12.066;2023-05-14T14:25:53;76.03;;;71.07;;
8964;SDS011;4517;49.020;12.066;2023-05-14T14:28:19;74.10;;;68.80;;
8964;SDS011;4517;49.020;12.066;2023-05-14T14:30:44;62.60;;;58.10;;
8964;SDS011;4517;49.020;12.066;2023-05-14T14:33:10;66.13;;;61.30;;
8964;SDS011;4517;49.020;12.066;2023-05-14T14:35:35;67.20;;;62.10;;
8964;SDS011;4517;49.020;12.066;2023-05-14T14:38:01;68.20;;;63.20;;
8964;SDS011;4517;49.020;12.066;2023-05-14T14:40:27;73.57;;;68.10;;